createdAt,value
2022-08-27T00:02:21.208Z,20.25
2022-08-27T00:08:41.167Z,20.1
2022-08-27T00:15:04.187Z,19.95
2022-08-27T00:21:24.230Z,19.88
2022-08-27T00:27:47.211Z,19.88
2022-08-27T00:34:07.533Z,19.93
2022-08-27T00:40:30.171Z,19.83
2022-08-27T00:46:50.201Z,19.72
2022-08-27T00:53:13.192Z,19.67
2022-08-27T00:59:33.202Z,19.57
2022-08-27T01:05:56.208Z,19.47
2022-08-27T01:12:16.183Z,19.44
2022-08-27T01:18:39.169Z,19.38
2022-08-27T01:24:59.202Z,19.28
2022-08-27T01:31:22.238Z,19.24
2022-08-27T01:37:42.184Z,19.18
2022-08-27T01:44:05.248Z,19.12
2022-08-27T01:50:25.217Z,19.11
2022-08-27T01:56:48.176Z,19.13
2022-08-27T02:03:08.183Z,19.18
2022-08-27T02:09:31.220Z,19.19
2022-08-27T02:15:51.189Z,19.02
2022-08-27T02:22:14.223Z,18.89
2022-08-27T02:28:34.230Z,18.78
2022-08-27T02:34:57.178Z,18.77
2022-08-27T02:41:17.184Z,18.69
2022-08-27T02:47:40.234Z,18.7
2022-08-27T02:54:00.187Z,18.69
2022-08-27T03:00:23.280Z,18.61
2022-08-27T03:06:43.161Z,18.59
2022-08-27T03:13:06.240Z,18.68
2022-08-27T03:19:26.236Z,18.72
2022-08-27T03:43:16.150Z,18.66
2022-08-27T03:49:39.179Z,18.69
2022-08-27T03:55:59.214Z,18.72
2022-08-27T04:02:22.191Z,18.71
2022-08-27T04:08:42.192Z,18.64
2022-08-27T04:15:05.188Z,18.6
2022-08-27T04:21:25.179Z,18.63
2022-08-27T04:27:48.230Z,18.62
2022-08-27T04:34:08.184Z,18.46
2022-08-27T04:40:31.220Z,18.32
2022-08-27T04:46:51.235Z,18.25
2022-08-27T04:53:14.170Z,18.22
2022-08-27T04:59:34.253Z,18.16
2022-08-27T05:05:57.159Z,18.16
2022-08-27T05:12:17.140Z,18.2
2022-08-27T05:18:42.158Z,18.21
2022-08-27T05:25:00.186Z,18.25
2022-08-27T05:31:23.260Z,18.2
2022-08-27T05:37:43.225Z,18.17
2022-08-27T05:44:18.821Z,18.18
2022-08-27T05:50:26.188Z,18.14
2022-08-27T05:56:49.175Z,18.06
2022-08-27T06:03:09.263Z,18.02
2022-08-27T06:09:32.167Z,17.9
2022-08-27T06:15:52.409Z,17.83
2022-08-27T06:22:15.183Z,17.79
2022-08-27T06:28:35.146Z,17.78
2022-08-27T06:34:58.227Z,17.8
2022-08-27T06:41:23.187Z,17.84
2022-08-27T06:47:41.193Z,17.82
2022-08-27T06:54:01.167Z,17.81
2022-08-27T07:00:24.154Z,17.82
2022-08-27T07:06:44.180Z,17.88
2022-08-27T07:13:07.165Z,17.96
2022-08-27T07:19:27.158Z,18.09
2022-08-27T07:25:50.208Z,18.16
2022-08-27T07:32:10.157Z,18.13
2022-08-27T07:38:33.202Z,18
2022-08-27T07:44:53.153Z,17.99
2022-08-27T07:51:16.154Z,17.91
2022-08-27T07:57:36.191Z,17.89
2022-08-27T08:03:59.146Z,17.9
2022-08-27T08:10:19.257Z,18.01
2022-08-27T08:16:42.318Z,18.25
2022-08-27T08:23:02.144Z,18.43
2022-08-27T08:29:25.175Z,18.37
2022-08-27T08:35:45.157Z,18.35
2022-08-27T08:42:08.191Z,18.28
2022-08-27T09:05:50.089Z,18.23
2022-08-27T09:12:10.157Z,18.21
2022-08-27T09:18:33.198Z,18.28
2022-08-27T09:24:53.204Z,18.33
2022-08-27T09:31:16.246Z,18.37
2022-08-27T09:37:36.205Z,18.48
2022-08-27T09:43:59.169Z,18.46
2022-08-27T09:50:19.183Z,18.47
2022-08-27T09:56:42.182Z,18.54
2022-08-27T10:03:02.161Z,18.65
2022-08-27T10:09:25.193Z,18.71
2022-08-27T10:15:48.940Z,18.62
2022-08-27T10:22:08.183Z,18.64
2022-08-27T10:28:28.148Z,18.71
2022-08-27T10:34:51.176Z,18.8
2022-08-27T10:41:11.173Z,18.86
2022-08-27T10:47:34.157Z,19.05
2022-08-27T10:53:54.164Z,19.16
2022-08-27T11:00:17.155Z,19.34
2022-08-27T11:06:37.163Z,19.48
2022-08-27T11:13:00.190Z,19.67
2022-08-27T11:19:20.163Z,19.76
2022-08-27T11:25:43.174Z,19.82
2022-08-27T11:32:03.242Z,20.08
2022-08-27T11:38:26.176Z,20.34
2022-08-27T11:44:46.139Z,20.53
2022-08-27T11:51:09.319Z,20.47
2022-08-27T11:57:29.145Z,20.43
2022-08-27T12:03:52.288Z,20.47
2022-08-27T12:10:12.167Z,20.59
2022-08-27T12:16:35.190Z,20.99
2022-08-27T12:22:55.172Z,21.32
2022-08-27T12:29:18.148Z,21.28
2022-08-27T12:35:38.142Z,21.31
2022-08-27T12:42:01.150Z,21.41
2022-08-27T12:48:21.148Z,21.55
2022-08-27T12:54:44.177Z,21.29
2022-08-27T13:01:04.306Z,21.31
2022-08-27T13:07:28.659Z,21.47
2022-08-27T13:13:47.189Z,21.68
2022-08-27T13:20:10.157Z,21.9
2022-08-27T13:26:30.186Z,21.69
2022-08-27T13:32:53.146Z,21.88
2022-08-27T13:39:13.171Z,21.98
2022-08-27T13:45:36.158Z,22.05
2022-08-27T13:51:56.145Z,22.09
2022-08-27T13:58:19.178Z,22.07
2022-08-27T14:04:39.146Z,21.91
2022-08-27T14:11:02.174Z,21.84
2022-08-27T14:17:22.163Z,21.67
2022-08-27T14:23:45.143Z,21.62
2022-08-27T14:30:05.170Z,21.68
2022-08-27T14:47:33.819Z,21.8
2022-08-27T14:53:53.147Z,21.63
2022-08-27T15:00:16.187Z,21.63
2022-08-27T15:06:36.177Z,21.79
2022-08-27T15:12:59.150Z,21.77
2022-08-27T15:19:19.172Z,21.84
2022-08-27T15:25:42.143Z,21.86
2022-08-27T15:32:02.181Z,21.79
2022-08-27T15:38:25.154Z,21.71
2022-08-27T15:44:45.148Z,21.65
2022-08-27T15:51:08.176Z,21.64
2022-08-27T15:57:28.144Z,21.7
2022-08-27T16:03:51.183Z,21.65
2022-08-27T16:10:11.158Z,21.6
2022-08-27T16:16:34.184Z,21.51
2022-08-27T16:22:54.176Z,21.46
2022-08-27T16:29:17.347Z,21.41
2022-08-27T16:35:37.377Z,21.37
2022-08-27T16:42:00.425Z,21.37
2022-08-27T16:48:20.180Z,21.37
2022-08-27T16:54:43.144Z,21.31
2022-08-27T17:01:03.200Z,21.25
2022-08-27T17:07:26.153Z,21.2
2022-08-27T17:13:46.144Z,21.15
2022-08-27T17:20:09.163Z,21.14
2022-08-27T17:26:29.148Z,21.12
2022-08-27T17:32:52.179Z,21.07
2022-08-27T17:39:12.152Z,21
2022-08-27T17:45:35.154Z,20.97
2022-08-27T17:51:55.168Z,20.93
2022-08-27T17:58:18.133Z,20.9
2022-08-27T18:04:38.188Z,20.88
2022-08-27T18:11:01.138Z,20.86
2022-08-27T18:17:21.165Z,20.83
2022-08-27T18:23:44.322Z,20.8
2022-08-27T18:30:04.186Z,20.77
2022-08-27T18:36:27.159Z,20.75
2022-08-27T18:42:47.134Z,20.71
2022-08-27T18:49:10.160Z,20.66
2022-08-27T18:55:30.134Z,20.64
2022-08-27T19:01:53.235Z,20.62
2022-08-27T19:08:13.320Z,20.61
2022-08-27T19:14:36.235Z,20.61
2022-08-27T19:20:56.241Z,20.58
2022-08-27T19:27:21.896Z,20.54
2022-08-27T19:33:39.170Z,20.51
2022-08-27T19:40:02.188Z,20.52
2022-08-27T19:46:22.539Z,20.52
2022-08-27T19:52:45.132Z,20.49
2022-08-27T19:59:16.352Z,20.47
2022-08-27T20:05:28.195Z,20.43
2022-08-27T20:11:48.141Z,20.4
2022-08-27T20:35:13.164Z,20.31
2022-08-27T20:41:36.144Z,20.31
2022-08-27T20:47:56.157Z,20.3
2022-08-27T20:54:19.143Z,20.28
2022-08-27T21:00:39.164Z,20.27
2022-08-27T21:07:02.147Z,20.27
2022-08-27T21:13:22.138Z,20.24
2022-08-27T21:19:45.175Z,20.19
2022-08-27T21:26:05.138Z,20.17
2022-08-27T21:32:28.172Z,20.14
2022-08-27T21:38:48.178Z,20.12
2022-08-27T21:45:11.142Z,20.13
2022-08-27T21:51:31.165Z,20.12
2022-08-27T21:57:54.143Z,20.13
2022-08-27T22:20:52.167Z,20.03
2022-08-27T22:27:12.171Z,20.03
2022-08-27T22:33:35.136Z,20.01
2022-08-27T22:39:55.220Z,20
2022-08-27T22:46:18.161Z,20
2022-08-27T22:52:38.154Z,20
2022-08-27T22:59:01.149Z,19.99
2022-08-27T23:05:21.255Z,19.99
2022-08-27T23:11:44.177Z,19.99
2022-08-27T23:18:04.212Z,19.97
2022-08-27T23:24:27.188Z,19.92
2022-08-27T23:30:47.136Z,19.87
2022-08-27T23:37:10.143Z,19.81
2022-08-27T23:43:30.167Z,19.76
2022-08-27T23:49:53.145Z,19.71
2022-08-27T23:56:13.187Z,19.66
